Time;durP1;ratioP1;P1;durP2;ratioP2;P2;SDS_P1;SDS_P2;PMS_P1;PMS_P2;Temp;Humidity;BMP_temperature;BMP_pressure;BME280_temperature;BME280_humidity;BME280_pressure;Samples;Min_cycle;Max_cycle;Signal;HPM_P1;HPM_P2
2022/06/11 00:00:24;;;;;;;8.90;2.88;;;18.10;52.60;;;;;;5065154;28;20024;-74
2022/06/11 00:02:50;;;;;;;7.20;2.08;;;18.10;53.40;;;;;;5040297;28;20246;-75
2022/06/11 00:05:16;;;;;;;9.60;2.75;;;18.10;52.80;;;;;;5063046;28;20447;-74
2022/06/11 00:07:42;;;;;;;15.13;3.83;;;18.10;53.00;;;;;;5048710;28;20423;-74
2022/06/11 00:10:10;;;;;;;7.20;2.47;;;18.10;53.00;;;;;;5055856;28;20021;-75
2022/06/11 00:12:36;;;;;;;11.23;3.15;;;18.10;53.10;;;;;;5063757;28;20032;-74
2022/06/11 00:15:05;;;;;;;12.55;2.35;;;18.10;53.20;;;;;;5065878;28;20032;-74
2022/06/11 00:17:31;;;;;;;11.95;2.95;;;18.00;53.10;;;;;;5048182;28;20029;-74
2022/06/11 00:19:58;;;;;;;10.25;2.90;;;18.00;53.20;;;;;;5063282;28;20036;-74
2022/06/11 00:22:24;;;;;;;9.75;2.88;;;18.00;53.30;;;;;;5062861;28;20044;-74
2022/06/11 00:24:51;;;;;;;13.27;2.85;;;18.00;53.40;;;;;;5056852;28;20059;-74
2022/06/11 00:27:19;;;;;;;10.00;2.50;;;18.00;53.50;;;;;;5054097;28;20025;-74
2022/06/11 00:29:46;;;;;;;8.45;2.70;;;18.00;53.50;;;;;;5027056;28;20036;-74
2022/06/11 00:32:13;;;;;;;7.78;2.50;;;18.00;53.60;;;;;;5062330;28;20032;-74
2022/06/11 00:34:41;;;;;;;12.18;3.85;;;17.90;53.50;;;;;;5055420;28;20037;-74
2022/06/11 00:37:07;;;;;;;11.40;2.88;;;17.90;53.60;;;;;;5054280;28;20076;-75
2022/06/11 00:39:35;;;;;;;9.35;2.70;;;17.90;53.70;;;;;;5045391;28;20085;-74
2022/06/11 00:42:12;;;;;;;12.00;3.70;;;17.90;53.80;;;;;;5048245;28;20040;-74
2022/06/11 00:44:39;;;;;;;11.85;3.03;;;17.90;53.90;;;;;;5059505;28;20389;-74
2022/06/11 00:47:13;;;;;;;13.43;3.58;;;17.80;53.80;;;;;;5035123;28;20563;-74
2022/06/11 00:49:52;;;;;;;12.02;3.58;;;17.80;53.90;;;;;;5061909;28;20039;-76
2022/06/11 00:52:42;;;;;;;11.98;2.63;;;17.80;54.00;;;;;;5055207;28;20056;-75
2022/06/11 00:55:16;;;;;;;14.32;3.17;;;17.80;54.20;;;;;;5060144;28;20109;-75
2022/06/11 00:57:51;;;;;;;12.73;3.60;;;17.80;54.10;;;;;;5050740;28;20041;-73
2022/06/11 01:00:24;;;;;;;11.05;3.08;;;17.80;54.20;;;;;;5057750;28;20109;-74
2022/06/11 01:02:50;;;;;;;;;;;17.80;54.30;;;;;;5062649;28;20245;-74
2022/06/11 01:05:23;;;;;;;12.77;2.70;;;17.80;54.10;;;;;;5047511;28;20023;-75
2022/06/11 01:08:08;;;;;;;;;;;17.70;53.90;;;;;;5061483;28;20029;-74
2022/06/11 01:11:03;;;;;;;11.02;2.97;;;17.70;53.80;;;;;;5052967;28;20108;-74
2022/06/11 01:13:55;;;;;;;9.88;3.05;;;17.70;53.90;;;;;;5063130;28;20430;-73
2022/06/11 01:16:58;;;;;;;9.93;2.45;;;17.60;53.90;;;;;;5051835;28;20049;-73
2022/06/11 01:19:40;;;;;;;14.50;3.30;;;17.60;54.00;;;;;;5027275;28;20492;-74
2022/06/11 01:22:58;;;;;;;12.68;2.80;;;17.60;54.00;;;;;;5058948;28;20075;-74
2022/06/11 01:25:44;;;;;;;9.60;2.25;;;17.60;54.20;;;;;;5048129;28;20044;-74
2022/06/11 01:28:28;;;;;;;9.82;3.40;;;17.60;54.30;;;;;;5034125;28;20414;-74
2022/06/11 01:31:00;;;;;;;16.58;3.25;;;17.50;54.20;;;;;;5061456;28;20116;-73
2022/06/11 01:34:04;;;;;;;11.18;2.80;;;17.50;54.20;;;;;;5060633;28;20029;-74
2022/06/11 01:36:43;;;;;;;8.18;3.03;;;17.50;54.50;;;;;;5058416;28;20047;-74
2022/06/11 01:39:28;;;;;;;10.77;3.13;;;17.50;54.50;;;;;;5058014;28;20036;-75
2022/06/11 01:42:01;;;;;;;10.32;2.70;;;17.50;54.60;;;;;;5041683;28;20021;-74
2022/06/11 01:44:34;;;;;;;10.35;2.38;;;17.50;54.60;;;;;;5037567;28;20484;-74
2022/06/11 01:47:03;;;;;;;10.13;2.28;;;17.40;54.50;;;;;;5056633;28;20139;-75
2022/06/11 01:49:32;;;;;;;11.98;2.72;;;17.40;54.60;;;;;;5047931;28;20128;-74
2022/06/11 01:52:18;;;;;;;11.95;3.72;;;17.40;54.70;;;;;;5054511;28;20032;-74
2022/06/11 01:55:08;;;;;;;9.57;2.67;;;17.40;54.80;;;;;;5056306;28;20131;-74
2022/06/11 01:57:53;;;;;;;10.82;3.10;;;17.30;54.80;;;;;;5056289;28;20040;-74
2022/06/11 02:00:33;;;;;;;8.63;2.58;;;17.40;55.10;;;;;;5055075;28;20063;-74
2022/06/11 02:03:18;;;;;;;7.40;2.88;;;17.30;54.80;;;;;;5062349;28;20371;-74
2022/06/11 02:06:13;;;;;;;10.13;3.47;;;17.40;55.20;;;;;;5068272;28;20051;-74
2022/06/11 02:09:20;;;;;;;11.95;2.95;;;17.30;55.10;;;;;;5036166;28;20025;-75
2022/06/11 02:11:51;;;;;;;8.32;3.33;;;17.30;55.10;;;;;;4985708;28;20026;-75
2022/06/11 02:14:35;;;;;;;14.90;4.30;;;17.30;55.00;;;;;;5054854;28;20031;-74
2022/06/11 02:17:10;;;;;;;9.35;2.63;;;17.30;55.20;;;;;;5058140;28;20029;-74
2022/06/11 02:19:48;;;;;;;11.30;2.78;;;17.30;55.30;;;;;;5061603;28;20179;-75
2022/06/11 02:22:28;;;;;;;14.60;3.45;;;17.20;55.20;;;;;;5065153;28;20080;-73
2022/06/11 02:25:08;;;;;;;13.27;3.42;;;17.20;55.40;;;;;;5058918;28;20038;-74
2022/06/11 02:27:35;;;;;;;11.32;3.33;;;17.20;55.40;;;;;;5061995;28;20026;-75
2022/06/11 02:30:03;;;;;;;7.88;2.65;;;17.20;55.40;;;;;;5043231;28;20101;-74
2022/06/11 02:32:31;;;;;;;11.10;3.40;;;17.20;55.50;;;;;;5053799;28;20463;-73
2022/06/11 02:35:01;;;;;;;8.90;3.47;;;17.20;55.60;;;;;;5067676;28;20454;-73
2022/06/11 02:37:38;;;;;;;7.50;2.50;;;17.20;55.70;;;;;;5065577;28;20031;-74
2022/06/11 02:40:20;;;;;;;12.73;4.18;;;17.10;55.60;;;;;;5067702;28;20020;-74
2022/06/11 02:42:46;;;;;;;9.02;2.58;;;17.10;55.70;;;;;;5063894;28;20034;-74
2022/06/11 02:45:14;;;;;;;11.48;3.25;;;17.10;55.70;;;;;;5057782;28;20498;-74
2022/06/11 02:47:42;;;;;;;10.10;2.95;;;17.10;55.80;;;;;;5071215;28;20060;-74
2022/06/11 02:50:09;;;;;;;11.30;3.55;;;17.10;55.90;;;;;;5056971;28;20020;-73
2022/06/11 02:52:38;;;;;;;11.02;3.85;;;17.10;56.00;;;;;;5058909;28;20492;-74
2022/06/11 02:55:04;;;;;;;11.65;3.47;;;17.00;55.90;;;;;;5062910;28;20032;-74
2022/06/11 02:57:30;;;;;;;11.02;3.63;;;17.00;56.00;;;;;;5054195;28;20044;-75
2022/06/11 02:59:57;;;;;;;10.40;2.70;;;17.00;56.00;;;;;;5053073;28;20036;-74
2022/06/11 03:02:24;;;;;;;8.57;2.30;;;16.90;55.90;;;;;;5062482;28;20506;-74
2022/06/11 03:04:51;;;;;;;11.23;3.70;;;16.90;56.10;;;;;;5032716;28;20043;-74
2022/06/11 03:07:18;;;;;;;11.05;2.80;;;16.90;56.10;;;;;;5041335;28;20025;-74
2022/06/11 03:09:44;;;;;;;10.05;2.45;;;16.90;56.80;;;;;;5068077;28;20043;-73
2022/06/11 03:12:13;;;;;;;14.02;3.33;;;16.80;56.10;;;;;;5067185;28;20029;-74
2022/06/11 03:14:41;;;;;;;14.98;4.70;;;16.80;56.20;;;;;;5069846;28;20067;-75
2022/06/11 03:17:09;;;;;;;10.20;2.85;;;16.80;56.30;;;;;;5066076;28;20029;-75
2022/06/11 03:19:34;;;;;;;8.88;2.28;;;16.80;56.30;;;;;;5063974;28;20384;-74
2022/06/11 03:22:01;;;;;;;9.25;2.70;;;16.70;56.20;;;;;;5028010;28;20062;-74
2022/06/11 03:24:27;;;;;;;8.32;2.67;;;16.80;56.40;;;;;;5063706;28;20484;-74
2022/06/11 03:26:54;;;;;;;11.00;2.60;;;16.80;56.50;;;;;;5061593;28;20118;-74
2022/06/11 03:29:21;;;;;;;13.65;3.45;;;16.80;56.50;;;;;;5038762;28;20032;-75
2022/06/11 03:31:48;;;;;;;8.77;2.45;;;16.70;56.40;;;;;;5063785;28;20119;-74
2022/06/11 03:34:15;;;;;;;8.20;3.42;;;16.70;56.40;;;;;;5055165;28;20029;-75
2022/06/11 03:36:42;;;;;;;10.75;2.42;;;16.80;56.70;;;;;;5043002;28;20094;-74
2022/06/11 03:39:09;;;;;;;11.02;2.22;;;16.70;56.60;;;;;;5059242;28;20078;-74
2022/06/11 03:41:35;;;;;;;9.77;2.67;;;16.80;56.80;;;;;;5042069;28;20028;-74
2022/06/11 03:44:01;;;;;;;12.65;3.70;;;16.70;56.70;;;;;;5059128;28;20024;-73
2022/06/11 03:46:29;;;;;;;7.03;2.20;;;16.70;56.70;;;;;;5023646;28;20036;-74
2022/06/11 03:48:55;;;;;;;13.77;3.92;;;16.80;56.90;;;;;;5045450;28;20529;-75
2022/06/11 03:51:22;;;;;;;12.43;2.70;;;16.70;56.80;;;;;;5060703;28;20032;-74
2022/06/11 03:53:49;;;;;;;9.82;2.42;;;16.70;56.90;;;;;;5058314;28;20495;-75
2022/06/11 03:56:16;;;;;;;11.48;2.65;;;16.70;56.90;;;;;;5059477;28;20037;-73
2022/06/11 03:58:44;;;;;;;10.82;2.60;;;16.70;57.00;;;;;;5041962;28;20033;-74
2022/06/11 04:01:16;;;;;;;8.75;3.15;;;16.70;57.00;;;;;;5048902;28;20028;-74
2022/06/11 04:03:45;;;;;;;13.00;4.53;;;16.70;57.10;;;;;;5054640;28;20025;-74
2022/06/11 04:06:13;;;;;;;11.00;2.40;;;16.70;57.00;;;;;;5040709;28;20033;-74
2022/06/11 04:08:40;;;;;;;7.65;2.00;;;16.70;57.10;;;;;;5061451;28;20063;-74
2022/06/11 04:11:07;;;;;;;6.07;2.20;;;16.70;57.10;;;;;;5037749;28;20629;-74
2022/06/11 04:13:35;;;;;;;9.52;3.03;;;16.70;57.20;;;;;;5058570;28;20119;-74
2022/06/11 04:16:02;;;;;;;10.90;3.33;;;16.60;57.10;;;;;;5060012;28;20470;-74
2022/06/11 04:18:38;;;;;;;11.48;3.00;;;16.70;57.40;;;;;;5060916;28;20039;-73
2022/06/11 04:21:09;;;;;;;9.60;2.95;;;16.70;57.40;;;;;;5054740;28;20514;-73
2022/06/11 04:23:37;;;;;;;8.35;2.75;;;16.70;57.30;;;;;;5056135;28;20044;-74
2022/06/11 04:26:07;;;;;;;8.85;2.40;;;16.70;57.20;;;;;;5056466;28;20460;-74
2022/06/11 04:28:33;;;;;;;8.73;3.17;;;16.70;57.30;;;;;;5056711;28;20028;-73
2022/06/11 04:31:01;;;;;;;11.57;3.03;;;16.70;57.20;;;;;;5057871;28;20033;-74
2022/06/11 04:33:28;;;;;;;9.30;3.25;;;16.70;57.30;;;;;;5028824;28;20048;-76
2022/06/11 04:35:55;;;;;;;8.75;2.22;;;16.70;57.20;;;;;;5041072;28;20067;-74
2022/06/11 04:38:21;;;;;;;7.35;2.35;;;16.70;57.30;;;;;;5059632;28;20086;-75
2022/06/11 04:40:47;;;;;;;9.70;2.38;;;16.80;57.50;;;;;;5054801;28;20036;-74
2022/06/11 04:43:13;;;;;;;9.35;2.17;;;16.80;57.50;;;;;;5055182;28;20760;-74
2022/06/11 04:45:42;;;;;;;9.38;2.65;;;16.80;57.50;;;;;;5046185;28;20029;-75
2022/06/11 04:48:09;;;;;;;9.35;2.50;;;16.80;57.50;;;;;;5041472;28;20057;-75
2022/06/11 04:50:37;;;;;;;8.02;2.67;;;16.80;57.50;;;;;;5057531;28;20506;-75
2022/06/11 04:53:04;;;;;;;8.23;1.85;;;16.80;57.50;;;;;;5060087;28;20031;-74
2022/06/11 04:55:30;;;;;;;13.23;3.33;;;16.80;57.50;;;;;;5059119;28;20415;-77
2022/06/11 04:57:56;;;;;;;8.90;2.80;;;16.90;57.60;;;;;;5060221;28;20500;-75
2022/06/11 05:00:26;;;;;;;10.63;3.03;;;16.90;57.60;;;;;;5042237;28;20095;-75
2022/06/11 05:02:52;;;;;;;5.78;2.53;;;16.90;57.60;;;;;;5056442;28;20191;-76
2022/06/11 05:05:19;;;;;;;7.70;2.35;;;16.90;57.50;;;;;;5051374;28;20081;-76
2022/06/11 05:07:46;;;;;;;8.68;2.92;;;16.90;57.50;;;;;;5058797;28;20395;-74
2022/06/11 05:10:14;;;;;;;10.05;2.10;;;17.00;57.60;;;;;;5059471;28;20044;-75
2022/06/11 05:12:41;;;;;;;6.78;2.60;;;17.00;57.60;;;;;;5040737;28;20510;-74
2022/06/11 05:15:08;;;;;;;10.18;2.83;;;17.10;57.70;;;;;;5055497;28;20079;-73
2022/06/11 05:17:35;;;;;;;8.80;2.40;;;17.10;57.60;;;;;;5055731;28;20062;-74
2022/06/11 05:20:02;;;;;;;8.55;2.47;;;17.10;57.60;;;;;;5053019;28;20368;-73
2022/06/11 05:22:29;;;;;;;10.10;2.95;;;17.10;57.60;;;;;;5060271;28;20058;-74
2022/06/11 05:24:55;;;;;;;8.30;2.67;;;17.20;57.70;;;;;;5058675;28;20562;-74
2022/06/11 05:27:24;;;;;;;7.30;2.33;;;17.20;57.60;;;;;;5060740;28;20056;-76
2022/06/11 05:30:06;;;;;;;9.27;2.42;;;17.20;57.60;;;;;;5060027;28;20028;-74
2022/06/11 05:32:35;;;;;;;8.13;2.38;;;17.30;57.80;;;;;;5059371;28;20032;-74
2022/06/11 05:35:04;;;;;;;8.48;2.63;;;17.30;57.70;;;;;;5052554;28;20067;-74
2022/06/11 05:37:30;;;;;;;8.35;2.90;;;17.40;57.80;;;;;;5070599;28;20029;-74
2022/06/11 05:39:56;;;;;;;8.75;2.45;;;17.40;57.80;;;;;;5071372;28;20017;-74
2022/06/11 05:42:24;;;;;;;8.68;2.72;;;17.40;57.80;;;;;;5055002;28;20039;-75
2022/06/11 05:44:51;;;;;;;6.72;2.50;;;17.40;57.70;;;;;;5073413;28;20033;-75
2022/06/11 05:47:24;;;;;;;8.98;2.03;;;17.50;57.80;;;;;;5050424;28;20542;-74
2022/06/11 05:49:55;;;;;;;8.88;2.85;;;17.60;57.90;;;;;;5051338;28;20047;-75
2022/06/11 05:52:24;;;;;;;11.20;3.13;;;17.70;57.90;;;;;;5048407;28;20039;-73
2022/06/11 05:54:51;;;;;;;9.73;3.35;;;17.80;57.90;;;;;;5031654;28;20021;-76
2022/06/11 05:57:21;;;;;;;6.03;2.35;;;17.90;57.90;;;;;;5051014;28;20329;-75
2022/06/11 05:59:52;;;;;;;10.43;3.35;;;18.00;57.90;;;;;;5043677;28;20040;-76
2022/06/11 06:02:21;;;;;;;11.82;3.03;;;18.10;58.00;;;;;;5046548;28;20040;-75
2022/06/11 06:04:47;;;;;;;10.45;2.25;;;18.20;58.00;;;;;;5048266;28;20031;-72
2022/06/11 06:07:12;;;;;;;6.90;1.75;;;18.20;58.10;;;;;;5041586;28;20192;-73
2022/06/11 06:09:38;;;;;;;7.38;2.33;;;18.40;58.30;;;;;;5046795;28;20036;-73
2022/06/11 06:12:05;;;;;;;8.48;2.83;;;18.60;58.60;;;;;;5037905;28;20036;-74
2022/06/11 06:14:31;;;;;;;7.55;2.08;;;18.70;58.40;;;;;;5045247;28;20139;-77
2022/06/11 06:16:57;;;;;;;7.07;2.58;;;18.80;58.40;;;;;;5047756;28;20029;-74
2022/06/11 06:19:23;;;;;;;8.45;2.30;;;18.90;58.80;;;;;;5041503;28;20025;-73
2022/06/11 06:21:50;;;;;;;6.78;1.80;;;19.00;59.40;;;;;;5046507;28;20038;-74
2022/06/11 06:24:17;;;;;;;10.60;3.25;;;19.10;59.80;;;;;;5019007;28;20029;-73
2022/06/11 06:26:42;;;;;;;6.53;2.35;;;19.30;59.90;;;;;;5045490;28;20065;-74
2022/06/11 06:29:09;;;;;;;8.68;2.13;;;19.50;59.70;;;;;;5026769;28;20044;-73
2022/06/11 06:31:37;;;;;;;6.68;1.83;;;19.70;59.70;;;;;;5034267;28;20040;-74
2022/06/11 06:34:03;;;;;;;9.43;2.40;;;19.80;59.60;;;;;;5021107;28;20503;-73
2022/06/11 06:36:31;;;;;;;11.82;2.83;;;19.90;59.50;;;;;;5043281;28;20522;-73
2022/06/11 06:38:57;;;;;;;12.63;3.65;;;20.20;59.70;;;;;;4996483;28;20022;-74
2022/06/11 06:41:23;;;;;;;6.40;2.30;;;20.50;59.50;;;;;;5044109;28;20075;-72
2022/06/11 06:43:49;;;;;;;7.03;2.45;;;20.80;59.10;;;;;;5047120;28;20147;-76
2022/06/11 06:46:17;;;;;;;9.63;2.75;;;20.90;58.90;;;;;;5047083;28;20033;-73
2022/06/11 06:48:43;;;;;;;7.55;3.10;;;21.30;59.10;;;;;;5039395;28;20049;-74
2022/06/11 06:51:11;;;;;;;7.40;1.95;;;21.90;59.00;;;;;;5028328;28;20381;-73
2022/06/11 06:53:38;;;;;;;7.15;2.20;;;22.40;58.50;;;;;;5045037;28;20511;-73
2022/06/11 06:56:05;;;;;;;6.95;2.33;;;23.00;58.30;;;;;;5043358;28;20064;-73
2022/06/11 06:58:33;;;;;;;7.82;2.30;;;23.50;58.10;;;;;;5049191;28;20111;-72
2022/06/11 07:01:00;;;;;;;7.03;2.15;;;24.10;58.00;;;;;;5044833;28;20039;-75
2022/06/11 07:03:25;;;;;;;5.82;2.42;;;24.30;57.40;;;;;;5044089;28;20056;-73
2022/06/11 07:05:53;;;;;;;7.88;2.33;;;24.40;57.30;;;;;;5039050;28;20013;-75
2022/06/11 07:08:20;;;;;;;7.47;2.13;;;24.20;57.10;;;;;;5001584;28;20072;-75
2022/06/11 07:10:48;;;;;;;6.47;2.20;;;24.10;57.20;;;;;;5048297;28;20460;-75
2022/06/11 07:13:14;;;;;;;6.47;2.63;;;24.00;57.40;;;;;;5043178;28;20028;-74
2022/06/11 07:15:41;;;;;;;7.32;2.67;;;24.20;57.60;;;;;;5044156;28;20037;-73
2022/06/11 07:18:14;;;;;;;4.93;2.20;;;24.90;57.80;;;;;;5024941;28;20032;-74
2022/06/11 07:20:43;;;;;;;6.97;2.95;;;25.40;56.70;;;;;;5043647;28;20168;-75
2022/06/11 07:23:21;;;;;;;7.45;2.13;;;25.60;56.30;;;;;;5038801;28;20119;-76
2022/06/11 07:25:50;;;;;;;7.13;2.40;;;25.80;56.00;;;;;;5013548;28;20148;-75
2022/06/11 07:28:22;;;;;;;12.23;3.17;;;26.00;55.70;;;;;;5044361;28;20024;-76
2022/06/11 07:30:49;;;;;;;4.93;1.58;;;26.20;55.20;;;;;;5037632;28;20179;-75
2022/06/11 07:33:21;;;;;;;7.68;2.30;;;26.60;55.10;;;;;;5045473;28;20032;-77
2022/06/11 07:35:48;;;;;;;8.77;1.83;;;27.10;54.20;;;;;;5027797;28;20107;-77
2022/06/11 07:38:16;;;;;;;5.80;2.35;;;27.70;53.00;;;;;;5045972;28;20026;-77
2022/06/11 07:40:43;;;;;;;8.45;2.30;;;28.30;52.00;;;;;;5032679;28;20551;-78
2022/06/11 07:43:09;;;;;;;4.63;1.50;;;28.90;51.00;;;;;;5034830;28;20032;-76
2022/06/11 07:45:40;;;;;;;7.82;2.60;;;29.40;50.10;;;;;;5012731;28;20035;-75
2022/06/11 07:48:08;;;;;;;5.50;1.70;;;30.00;49.20;;;;;;5046382;28;20059;-77
2022/06/11 07:50:40;;;;;;;5.78;2.08;;;30.50;48.40;;;;;;5052399;28;20032;-77
2022/06/11 07:53:07;;;;;;;8.45;2.50;;;30.90;47.40;;;;;;5048739;28;20032;-77
2022/06/11 07:55:35;;;;;;;3.97;1.40;;;31.40;46.80;;;;;;5055801;28;20131;-76
2022/06/11 07:58:02;;;;;;;4.80;2.17;;;31.70;46.00;;;;;;5033113;28;20032;-76
2022/06/11 08:00:35;;;;;;;7.20;2.15;;;32.10;45.30;;;;;;5050908;28;20128;-75
2022/06/11 08:03:02;;;;;;;5.63;2.05;;;32.20;44.80;;;;;;5053462;28;20047;-74
2022/06/11 08:05:28;;;;;;;7.95;2.40;;;32.10;45.00;;;;;;5055814;28;20414;-74
2022/06/11 08:07:54;;;;;;;5.13;1.67;;;31.80;45.60;;;;;;5047491;28;20025;-76
2022/06/11 08:10:23;;;;;;;6.32;2.22;;;31.40;45.90;;;;;;5053026;28;20039;-76
2022/06/11 08:12:50;;;;;;;5.57;1.90;;;31.20;46.30;;;;;;5049365;28;20035;-77
2022/06/11 08:15:16;;;;;;;7.75;1.63;;;30.90;46.50;;;;;;5050989;28;20484;-74
2022/06/11 08:17:42;;;;;;;4.43;1.50;;;30.80;46.70;;;;;;5030614;28;20033;-74
2022/06/11 08:20:12;;;;;;;5.30;1.65;;;30.60;46.90;;;;;;5035138;28;20039;-75
2022/06/11 08:22:38;;;;;;;5.80;2.03;;;30.50;47.10;;;;;;5045926;28;20622;-74
2022/06/11 08:25:04;;;;;;;4.90;1.77;;;30.40;47.20;;;;;;5048181;28;20132;-74
2022/06/11 08:27:30;;;;;;;3.08;1.40;;;30.30;47.20;;;;;;5052551;28;20137;-75
2022/06/11 08:29:56;;;;;;;6.95;2.05;;;30.20;47.30;;;;;;5043075;28;20029;-75
2022/06/11 08:32:23;;;;;;;4.35;1.92;;;30.10;47.30;;;;;;5047560;28;20027;-75
2022/06/11 08:34:49;;;;;;;3.72;1.70;;;29.90;47.30;;;;;;5047305;28;20040;-75
2022/06/11 08:37:15;;;;;;;4.82;2.00;;;29.80;47.60;;;;;;5050954;28;20456;-74
2022/06/11 08:39:42;;;;;;;4.68;2.50;;;29.50;47.60;;;;;;5050862;28;20638;-74
2022/06/11 08:42:26;;;;;;;4.30;1.85;;;29.30;47.90;;;;;;5049447;28;20033;-75
2022/06/11 08:44:52;;;;;;;5.15;1.83;;;28.90;48.00;;;;;;5048819;28;20064;-76
2022/06/11 08:47:21;;;;;;;5.80;1.90;;;28.80;48.50;;;;;;5050701;28;20430;-75
2022/06/11 08:49:51;;;;;;;6.38;2.22;;;28.60;48.60;;;;;;5057098;28;20524;-75
2022/06/11 08:52:24;;;;;;;4.15;1.77;;;28.50;48.60;;;;;;5053762;28;20171;-75
2022/06/11 08:54:50;;;;;;;6.15;1.85;;;28.30;48.70;;;;;;5051026;28;20055;-75
2022/06/11 08:57:40;;;;;;;4.28;1.80;;;28.20;48.90;;;;;;5051384;28;20043;-74
2022/06/11 09:00:24;;;;;;;6.05;1.90;;;28.30;48.70;;;;;;5050533;28;20056;-74
2022/06/11 09:03:02;;;;;;;6.05;1.77;;;28.60;48.50;;;;;;5045917;28;20037;-76
2022/06/11 09:05:49;;;;;;;4.32;1.92;;;28.70;48.90;;;;;;5045433;28;20040;-76
2022/06/11 09:08:33;;;;;;;5.22;1.73;;;28.80;48.00;;;;;;5021502;28;20036;-75
2022/06/11 09:11:27;;;;;;;4.68;1.75;;;28.70;47.90;;;;;;5051493;28;20041;-75
2022/06/11 09:14:22;;;;;;;4.57;1.90;;;28.80;48.10;;;;;;5054365;28;20070;-74
2022/06/11 09:17:06;;;;;;;4.43;1.65;;;29.10;48.00;;;;;;5049137;28;20731;-75
2022/06/11 09:19:44;;;;;;;5.20;2.05;;;29.30;47.60;;;;;;5039980;28;20124;-76
2022/06/11 09:22:36;;;;;;;5.63;2.08;;;29.50;47.30;;;;;;5031794;28;20114;-74
2022/06/11 09:25:31;;;;;;;4.70;1.85;;;29.70;47.10;;;;;;5034802;28;20101;-74
2022/06/11 09:28:25;;;;;;;4.82;1.55;;;30.20;46.70;;;;;;5046975;28;20035;-75
2022/06/11 09:31:07;;;;;;;7.45;2.17;;;30.30;46.30;;;;;;5037485;28;20082;-74
2022/06/11 09:33:40;;;;;;;4.30;1.45;;;30.20;46.20;;;;;;5037705;28;20519;-76
2022/06/11 09:36:16;;;;;;;6.47;2.38;;;30.10;46.40;;;;;;5036873;28;20368;-75
2022/06/11 09:39:06;;;;;;;5.63;2.50;;;30.10;46.30;;;;;;5058548;28;20037;-75
2022/06/11 09:42:10;;;;;;;4.63;2.15;;;30.20;46.00;;;;;;5052181;28;20093;-75
2022/06/11 09:45:12;;;;;;;5.25;2.00;;;30.40;45.90;;;;;;5052002;28;20036;-75
2022/06/11 09:47:48;;;;;;;5.60;1.40;;;30.60;45.50;;;;;;5055728;28;20393;-75
2022/06/11 09:50:14;;;;;;;4.57;1.98;;;30.60;45.50;;;;;;5056253;28;20028;-75
2022/06/11 09:52:50;;;;;;;6.25;2.00;;;30.60;45.60;;;;;;5058865;28;20032;-75
2022/06/11 09:55:46;;;;;;;5.28;2.05;;;30.70;45.60;;;;;;5054681;28;20119;-75
2022/06/11 09:58:39;;;;;;;5.72;2.38;;;30.80;45.40;;;;;;5027258;28;20067;-74
2022/06/11 10:01:14;;;;;;;4.90;1.88;;;31.00;45.10;;;;;;5053728;28;20192;-73
2022/06/11 10:04:00;;;;;;;4.22;1.88;;;31.10;45.00;;;;;;5054093;28;20369;-74
2022/06/11 10:06:40;;;;;;;3.95;2.08;;;31.30;44.80;;;;;;5043070;28;20622;-75
2022/06/11 10:09:43;;;;;;;8.68;2.88;;;31.40;44.70;;;;;;5055590;28;20438;-74
2022/06/11 10:12:20;;;;;;;3.83;1.30;;;31.40;44.50;;;;;;5053764;28;20033;-76
2022/06/11 10:14:54;;;;;;;4.30;1.70;;;31.20;44.60;;;;;;5058511;28;20091;-75
2022/06/11 10:17:38;;;;;;;5.00;1.88;;;31.10;44.90;;;;;;5057923;28;20317;-74
2022/06/11 10:20:22;;;;;;;5.03;1.70;;;30.90;44.80;;;;;;5054963;28;20028;-73
2022/06/11 10:23:25;;;;;;;7.13;2.08;;;30.70;45.00;;;;;;5042298;28;20028;-74
2022/06/11 10:26:15;;;;;;;4.20;1.88;;;30.70;45.10;;;;;;5057346;28;20290;-74
2022/06/11 10:28:45;;;;;;;6.45;2.55;;;30.60;45.30;;;;;;5060435;28;20079;-73
2022/06/11 10:31:15;;;;;;;4.97;2.00;;;30.60;45.40;;;;;;5058167;28;20028;-75
2022/06/11 10:33:54;;;;;;;6.28;1.88;;;30.70;45.40;;;;;;5056262;28;20032;-76
2022/06/11 10:36:23;;;;;;;3.75;1.73;;;30.90;45.30;;;;;;5053012;28;20473;-76
2022/06/11 10:39:13;;;;;;;7.18;2.70;;;31.40;45.10;;;;;;5038970;28;20066;-75
2022/06/11 10:42:04;;;;;;;4.25;2.25;;;31.80;44.20;;;;;;5049354;28;20465;-75
2022/06/11 10:44:38;;;;;;;5.93;2.20;;;32.10;43.90;;;;;;5051723;28;20485;-74
2022/06/11 10:47:16;;;;;;;5.40;1.98;;;32.00;43.70;;;;;;5057075;28;20064;-75
2022/06/11 10:49:48;;;;;;;4.75;1.88;;;31.90;43.80;;;;;;5057937;28;20114;-76
2022/06/11 10:52:27;;;;;;;7.38;2.53;;;31.80;44.00;;;;;;5057888;28;20082;-75
2022/06/11 10:54:53;;;;;;;5.70;2.10;;;31.80;44.00;;;;;;5063604;28;20091;-75
2022/06/11 10:57:26;;;;;;;3.78;2.13;;;31.90;44.20;;;;;;5053191;28;20087;-76
2022/06/11 11:00:12;;;;;;;6.70;2.40;;;31.90;44.10;;;;;;5059815;28;20028;-75
2022/06/11 11:03:00;;;;;;;6.38;2.42;;;32.00;43.90;;;;;;5066867;28;20227;-75
2022/06/11 11:06:14;;;;;;;12.25;3.45;;;32.00;43.90;;;;;;5029626;28;20091;-77
2022/06/11 11:08:53;;;;;;;7.65;3.45;;;32.20;43.30;;;;;;5004970;28;20345;-76
2022/06/11 11:11:19;;;;;;;14.00;4.80;;;32.40;42.50;;;;;;5053685;28;20032;-74
2022/06/11 11:13:47;;;;;;;12.73;3.88;;;32.30;42.10;;;;;;5065554;28;20461;-74
2022/06/11 11:16:13;;;;;;;16.00;4.20;;;32.20;41.60;;;;;;5045700;28;20070;-73
2022/06/11 11:19:05;;;;;;;12.35;4.07;;;32.00;41.30;;;;;;5031084;28;20054;-76
2022/06/11 11:21:37;;;;;;;13.23;4.55;;;31.90;40.80;;;;;;5023548;28;20040;-76
2022/06/11 11:24:22;;;;;;;10.43;4.63;;;31.70;40.90;;;;;;5061719;28;20363;-75
2022/06/11 11:26:56;;;;;;;10.73;4.25;;;31.50;40.40;;;;;;5058998;28;20410;-74
2022/06/11 11:29:33;;;;;;;10.68;4.13;;;31.30;40.50;;;;;;5046696;28;20506;-76
2022/06/11 11:32:04;;;;;;;7.57;2.92;;;31.20;40.20;;;;;;5076128;28;20032;-75
2022/06/11 11:34:32;;;;;;;10.32;3.22;;;31.20;40.30;;;;;;5056973;28;20039;-75
2022/06/11 11:37:21;;;;;;;8.82;3.38;;;31.10;40.80;;;;;;5061339;28;20032;-76
2022/06/11 11:39:54;;;;;;;7.95;3.70;;;31.10;39.60;;;;;;5026189;28;20388;-74
2022/06/11 11:42:36;;;;;;;8.45;3.35;;;31.00;39.60;;;;;;5065897;28;20357;-74
2022/06/11 11:45:25;;;;;;;11.85;3.88;;;30.70;39.10;;;;;;5047544;28;20441;-76
2022/06/11 11:48:04;;;;;;;6.43;2.40;;;30.50;39.30;;;;;;5063724;28;20446;-76
2022/06/11 11:50:36;;;;;;;8.45;3.15;;;30.30;39.60;;;;;;5057065;28;20442;-79
2022/06/11 11:53:22;;;;;;;11.75;2.92;;;30.30;39.80;;;;;;5031818;28;20021;-75
2022/06/11 11:55:57;;;;;;;7.80;3.90;;;30.30;39.70;;;;;;5064000;28;20558;-76
2022/06/11 11:58:47;;;;;;;10.20;3.35;;;30.40;39.90;;;;;;5053762;28;20043;-76
2022/06/11 12:01:16;;;;;;;7.90;3.05;;;30.50;39.80;;;;;;5044133;28;20071;-77
2022/06/11 12:03:59;;;;;;;9.48;3.88;;;30.50;39.80;;;;;;5059796;28;20048;-75
2022/06/11 12:06:42;;;;;;;5.65;2.40;;;30.50;39.30;;;;;;5039421;28;20438;-82
2022/06/11 12:09:22;;;;;;;9.70;3.67;;;30.50;39.20;;;;;;5041134;28;20087;-83
2022/06/11 12:11:59;;;;;;;9.93;3.42;;;30.50;39.00;;;;;;5042705;28;20056;-82
2022/06/11 12:14:32;;;;;;;10.52;3.58;;;30.50;39.00;;;;;;5042456;28;20127;-83
2022/06/11 12:17:15;;;;;;;11.55;4.13;;;30.50;39.00;;;;;;5039444;28;20470;-91
2022/06/11 12:19:42;;;;;;;9.18;3.38;;;30.50;39.00;;;;;;5059314;28;20029;-78
2022/06/11 12:22:23;;;;;;;7.60;3.17;;;30.50;39.10;;;;;;5056400;28;20025;-77
2022/06/11 12:24:49;;;;;;;9.02;2.65;;;30.50;39.00;;;;;;5059527;28;20383;-76
2022/06/11 12:27:42;;;;;;;10.95;3.60;;;30.50;39.20;;;;;;5053587;28;20110;-76
2022/06/11 12:30:27;;;;;;;8.25;2.90;;;30.50;38.70;;;;;;5036081;28;20506;-76
2022/06/11 12:32:53;;;;;;;11.18;3.33;;;30.50;38.60;;;;;;5041876;28;20235;-76
2022/06/11 12:35:43;;;;;;;8.88;2.72;;;30.50;38.70;;;;;;5050791;28;20040;-76
2022/06/11 12:38:20;;;;;;;7.90;2.88;;;30.50;38.40;;;;;;5022236;28;20025;-77
2022/06/11 12:40:57;;;;;;;10.50;2.78;;;30.50;38.40;;;;;;5054465;28;20028;-75
2022/06/11 12:43:24;;;;;;;8.45;2.88;;;30.60;38.30;;;;;;5048880;28;20437;-76
2022/06/11 12:46:07;;;;;;;12.38;2.95;;;30.60;38.30;;;;;;5052846;28;20084;-81
2022/06/11 12:48:48;;;;;;;9.13;3.33;;;30.60;38.00;;;;;;5035542;28;20052;-81
2022/06/11 12:51:52;;;;;;;8.57;2.67;;;30.70;38.00;;;;;;5057537;28;20037;-80
2022/06/11 12:54:42;;;;;;;8.55;2.97;;;30.70;38.00;;;;;;5048821;28;20033;-80
2022/06/11 12:57:28;;;;;;;6.13;2.78;;;30.70;38.10;;;;;;5038937;28;20491;-80
2022/06/11 13:00:16;;;;;;;6.65;3.22;;;30.80;38.30;;;;;;5038844;28;20036;-80
2022/06/11 13:02:51;;;;;;;6.22;2.50;;;30.90;38.10;;;;;;5026964;28;20063;-78
2022/06/11 13:05:49;;;;;;;8.45;2.78;;;30.90;38.20;;;;;;5039102;28;20132;-80
2022/06/11 13:08:58;;;;;;;10.32;3.92;;;31.00;38.00;;;;;;5049511;28;20037;-78
2022/06/11 13:11:24;;;;;;;6.03;3.00;;;31.10;38.10;;;;;;5034208;28;20566;-78
2022/06/11 13:14:05;;;;;;;8.75;2.55;;;31.20;38.20;;;;;;5058459;28;20041;-78
2022/06/11 13:16:39;;;;;;;8.45;3.17;;;31.20;38.00;;;;;;5052676;28;20135;-77